createdAt,value
2023-01-11T17:21:04.306Z,100810.72
2023-01-11T17:26:14.703Z,100817.38
2023-01-11T17:31:24.264Z,100836.06
2023-01-11T17:36:32.518Z,100818.88
2023-01-11T17:41:50.097Z,100826.53
2023-01-11T17:46:55.555Z,100819.69
2023-01-11T17:52:11.408Z,100817.97
2023-01-11T17:57:16.962Z,100825.72
2023-01-11T18:02:22.177Z,100818.88
2023-01-11T18:07:29.986Z,100816.31
2023-01-11T18:12:37.461Z,100810.38
2023-01-11T18:17:43.363Z,100814.69
2023-01-11T18:23:04.578Z,100829.22
2023-01-11T18:28:32.342Z,100821.56
2023-01-11T18:33:37.636Z,100825.81
2023-01-11T18:38:45.379Z,100844.59
2023-01-11T18:43:50.557Z,100829.19
2023-01-11T18:48:55.725Z,100826.63
2023-01-11T18:54:03.501Z,100831.78
2023-01-11T18:59:08.740Z,100823.25
2023-01-11T19:04:13.894Z,100819.88
2023-01-11T19:09:21.720Z,100815.63
2023-01-11T19:14:26.879Z,100810.50
2023-01-11T19:19:31.997Z,100804.50
2023-01-11T19:24:39.846Z,100805.41
2023-01-11T19:29:44.927Z,100792.63
2023-01-11T19:34:50.972Z,100783.25
2023-01-11T19:39:58.685Z,100790.97
2023-01-11T19:45:03.780Z,100773.06
2023-01-11T19:50:09.745Z,100775.63
2023-01-11T19:55:20.872Z,100769.66
2023-01-11T20:00:28.423Z,100773.00
2023-01-11T20:05:34.231Z,100771.22
2023-01-11T20:10:42.047Z,100760.03
2023-01-11T20:15:47.459Z,100757.47
2023-01-11T20:20:58.325Z,100745.53
2023-01-11T20:26:07.708Z,100740.41
2023-01-11T20:31:13.039Z,100737.88
2023-01-11T20:36:20.244Z,100727.66
2023-01-11T20:41:41.362Z,100731.06
2023-01-11T20:46:48.114Z,100735.28
2023-01-11T20:51:53.517Z,100730.09
2023-01-11T20:57:05.482Z,100713.81
2023-01-11T21:02:13.677Z,100706.09
2023-01-11T21:07:18.841Z,100713.75
2023-01-11T21:12:26.732Z,100716.34
2023-01-11T21:17:31.925Z,100712.84
2023-01-11T21:22:37.261Z,100716.16
2023-01-11T21:27:45.062Z,100711.78
2023-01-11T21:32:50.193Z,100710.75
2023-01-11T21:37:55.556Z,100675.44
2023-01-11T21:43:03.353Z,100682.09
2023-01-11T21:48:09.793Z,100671.81
2023-01-11T21:53:15.099Z,100674.38
2023-01-11T21:58:22.847Z,100667.47
2023-01-11T22:03:30.154Z,100664.88
2023-01-11T22:08:37.582Z,100653.63
2023-01-11T22:13:45.376Z,100648.41
2023-01-11T22:18:50.574Z,100639.78
2023-01-11T22:23:56.693Z,100630.31
